Time;durP1;ratioP1;P1;durP2;ratioP2;P2;SDS_P1;SDS_P2;PMS_P1;PMS_P2;Temp;Humidity;BMP_temperature;BMP_pressure;BME280_temperature;BME280_humidity;BME280_pressure;Samples;Min_cycle;Max_cycle;Signal;HPM_P1;HPM_P2
2022/03/12 00:01:00;;;;;;;16.60;10.35;;;3.80;94.70;;;;;;5038776;28;20117;-76
2022/03/12 00:03:25;;;;;;;13.63;10.23;;;3.70;94.80;;;;;;5046792;28;20132;-74
2022/03/12 00:05:58;;;;;;;15.98;10.40;;;3.70;94.80;;;;;;5044995;28;20029;-75
2022/03/12 00:08:34;;;;;;;22.67;11.98;;;3.70;94.90;;;;;;5048022;28;20024;-73
2022/03/12 00:11:02;;;;;;;16.65;9.15;;;3.70;94.90;;;;;;5048688;28;20028;-75
2022/03/12 00:13:28;;;;;;;11.15;9.48;;;3.70;94.70;;;;;;5045875;28;20029;-73
2022/03/12 00:15:58;;;;;;;15.68;10.05;;;3.60;94.80;;;;;;5049110;28;20032;-77
2022/03/12 00:18:29;;;;;;;13.18;8.85;;;3.50;94.90;;;;;;5049820;28;20545;-72
2022/03/12 00:20:56;;;;;;;16.13;11.18;;;3.50;95.00;;;;;;5043744;28;20029;-73
2022/03/12 00:23:22;;;;;;;14.60;10.40;;;3.50;95.00;;;;;;5050499;28;20013;-72
2022/03/12 00:25:48;;;;;;;16.40;10.05;;;3.50;95.10;;;;;;5051216;28;20431;-73
2022/03/12 00:28:18;;;;;;;18.80;11.20;;;3.40;95.00;;;;;;5049420;28;20086;-74
2022/03/12 00:30:51;;;;;;;19.40;9.15;;;3.40;95.20;;;;;;5048687;28;20025;-72
2022/03/12 00:33:24;;;;;;;15.23;8.75;;;3.40;95.00;;;;;;5049024;28;20174;-75
2022/03/12 00:35:52;;;;;;;11.82;8.90;;;3.40;95.00;;;;;;5049907;28;20064;-73
2022/03/12 00:38:21;;;;;;;14.18;11.18;;;3.40;95.00;;;;;;5045009;28;20039;-73
2022/03/12 00:40:52;;;;;;;21.90;12.05;;;3.40;94.90;;;;;;5057123;28;20029;-74
2022/03/12 00:43:18;;;;;;;10.35;8.40;;;3.40;94.80;;;;;;5060047;28;20025;-72
2022/03/12 00:45:45;;;;;;;12.82;9.15;;;3.40;94.60;;;;;;5057034;28;20013;-72
2022/03/12 00:48:11;;;;;;;14.85;10.43;;;3.40;94.50;;;;;;5045492;28;20040;-74
2022/03/12 00:50:37;;;;;;;11.32;9.82;;;3.50;94.50;;;;;;5050531;28;20061;-73
2022/03/12 00:53:03;;;;;;;13.30;9.07;;;3.50;93.90;;;;;;5048740;28;20120;-75
2022/03/12 00:55:29;;;;;;;14.52;11.32;;;3.60;93.80;;;;;;5052787;28;20035;-74
2022/03/12 00:57:55;;;;;;;12.15;9.38;;;3.60;93.50;;;;;;5050905;28;20499;-74
2022/03/12 01:00:23;;;;;;;15.00;10.13;;;3.50;93.90;;;;;;5051135;28;20036;-75
2022/03/12 01:02:50;;;;;;;14.77;9.68;;;3.50;93.70;;;;;;5049737;28;20102;-73
2022/03/12 01:05:19;;;;;;;18.50;11.73;;;3.60;93.90;;;;;;5040909;28;20037;-73
2022/03/12 01:07:45;;;;;;;14.48;9.05;;;3.60;94.00;;;;;;5050765;28;20036;-74
2022/03/12 01:10:12;;;;;;;17.38;9.88;;;3.50;93.80;;;;;;5048448;28;20120;-73
2022/03/12 01:12:38;;;;;;;13.15;10.00;;;3.60;93.70;;;;;;5049554;28;20118;-73
2022/03/12 01:15:06;;;;;;;18.02;9.82;;;3.60;93.50;;;;;;5043905;28;20076;-72
2022/03/12 01:17:34;;;;;;;14.82;10.82;;;3.60;93.30;;;;;;5044721;28;20036;-73
2022/03/12 01:20:02;;;;;;;16.73;11.20;;;3.60;93.30;;;;;;5049258;28;20384;-73
2022/03/12 01:22:33;;;;;;;12.27;9.48;;;3.70;93.10;;;;;;5042510;28;20009;-73
2022/03/12 01:24:59;;;;;;;12.48;8.93;;;3.60;92.80;;;;;;5049750;28;20021;-73
2022/03/12 01:27:24;;;;;;;12.73;10.25;;;3.70;92.20;;;;;;5043365;28;20509;-73
2022/03/12 01:29:53;;;;;;;12.85;10.40;;;3.80;92.00;;;;;;5047452;28;20029;-75
2022/03/12 01:32:19;;;;;;;15.23;9.48;;;3.70;91.70;;;;;;5056527;28;20078;-73
2022/03/12 01:34:44;;;;;;;12.27;9.50;;;3.80;91.50;;;;;;5050041;28;20454;-73
2022/03/12 01:37:10;;;;;;;13.90;8.85;;;3.70;92.10;;;;;;5044158;28;20064;-75
2022/03/12 01:39:36;;;;;;;12.98;10.00;;;3.70;92.00;;;;;;5052733;28;20025;-74
2022/03/12 01:42:22;;;;;;;15.63;9.43;;;3.70;91.50;;;;;;5049184;28;20100;-72
2022/03/12 01:45:10;;;;;;;11.35;9.55;;;3.70;91.60;;;;;;5044777;28;20434;-75
2022/03/12 01:47:40;;;;;;;14.38;10.50;;;3.70;90.90;;;;;;5045735;28;20442;-73
2022/03/12 01:50:12;;;;;;;13.18;8.38;;;3.80;90.70;;;;;;5040237;28;20060;-75
2022/03/12 01:52:42;;;;;;;10.60;8.25;;;3.80;90.60;;;;;;5044636;28;20021;-74
2022/03/12 01:55:12;;;;;;;10.85;8.82;;;3.80;90.50;;;;;;5039159;28;20119;-74
2022/03/12 01:57:43;;;;;;;11.80;8.45;;;3.70;90.60;;;;;;5042200;28;20332;-74
2022/03/12 02:00:24;;;;;;;11.43;8.65;;;3.70;90.50;;;;;;5044699;28;20029;-72
2022/03/12 02:02:53;;;;;;;11.85;8.77;;;3.80;90.50;;;;;;5043551;28;20025;-73
2022/03/12 02:05:25;;;;;;;14.02;8.00;;;3.80;90.20;;;;;;5031426;28;20487;-75
2022/03/12 02:07:51;;;;;;;15.68;8.88;;;3.80;90.00;;;;;;5043185;28;20052;-73
2022/03/12 02:10:20;;;;;;;14.13;8.27;;;3.80;89.70;;;;;;5039598;28;20048;-73
2022/03/12 02:12:46;;;;;;;12.93;7.70;;;3.80;89.60;;;;;;5048110;28;20021;-73
2022/03/12 02:15:12;;;;;;;9.90;7.15;;;3.70;90.20;;;;;;5042119;28;20049;-72
2022/03/12 02:17:39;;;;;;;10.93;8.15;;;3.70;90.10;;;;;;5043731;28;20036;-72
2022/03/12 02:20:08;;;;;;;10.30;8.30;;;3.70;90.00;;;;;;5042742;28;20480;-72
2022/03/12 02:22:33;;;;;;;13.80;10.18;;;3.70;90.30;;;;;;5043716;28;20025;-72
2022/03/12 02:25:00;;;;;;;10.60;7.95;;;3.70;90.10;;;;;;5045780;28;20026;-72
2022/03/12 02:27:26;;;;;;;12.02;7.32;;;3.60;90.30;;;;;;5044170;28;20013;-73
2022/03/12 02:30:01;;;;;;;9.68;8.15;;;3.60;90.20;;;;;;5045091;28;20072;-72
2022/03/12 02:32:28;;;;;;;13.68;9.52;;;3.60;90.10;;;;;;5070692;28;20036;-74
2022/03/12 02:34:56;;;;;;;11.27;8.15;;;3.50;90.20;;;;;;5042885;28;20097;-73
2022/03/12 02:37:30;;;;;;;12.77;8.93;;;3.60;90.30;;;;;;5046644;28;20059;-73
2022/03/12 02:40:02;;;;;;;8.02;6.55;;;3.60;90.20;;;;;;5046585;28;20116;-76
2022/03/12 02:42:29;;;;;;;12.27;8.55;;;3.60;89.80;;;;;;5046943;28;20025;-73
2022/03/12 02:44:56;;;;;;;13.55;9.90;;;3.60;90.00;;;;;;5044688;28;20440;-73
2022/03/12 02:47:26;;;;;;;10.23;7.00;;;3.60;90.00;;;;;;5040650;28;20099;-77
2022/03/12 02:49:57;;;;;;;10.57;7.95;;;3.60;90.20;;;;;;5040581;28;20091;-75
2022/03/12 02:52:27;;;;;;;13.00;9.38;;;3.60;90.20;;;;;;5040726;28;20037;-73
2022/03/12 02:54:54;;;;;;;9.65;7.40;;;3.60;90.30;;;;;;5041537;28;20038;-72
2022/03/12 02:57:23;;;;;;;11.23;8.68;;;3.60;90.10;;;;;;5042805;28;20040;-72
2022/03/12 02:59:50;;;;;;;8.57;7.55;;;3.60;90.20;;;;;;5040012;28;20036;-72
2022/03/12 03:02:17;;;;;;;11.13;8.23;;;3.50;89.40;;;;;;5039601;28;20167;-75
2022/03/12 03:04:43;;;;;;;11.40;8.02;;;3.60;89.60;;;;;;5042190;28;20163;-74
2022/03/12 03:07:11;;;;;;;7.97;7.18;;;3.60;88.60;;;;;;5045433;28;20025;-74
2022/03/12 03:09:38;;;;;;;11.65;7.65;;;3.60;87.90;;;;;;5046708;28;20029;-76
2022/03/12 03:12:08;;;;;;;12.57;8.13;;;3.60;87.50;;;;;;5044120;28;20025;-72
2022/03/12 03:14:48;;;;;;;12.27;7.43;;;3.60;87.10;;;;;;5041185;28;20025;-73
2022/03/12 03:17:15;;;;;;;9.38;7.63;;;3.70;86.80;;;;;;5042614;28;20394;-74
2022/03/12 03:19:41;;;;;;;8.63;6.15;;;3.60;86.80;;;;;;5037681;28;20448;-75
2022/03/12 03:22:08;;;;;;;8.75;6.50;;;3.60;86.10;;;;;;5044921;28;20036;-77
2022/03/12 03:24:34;;;;;;;10.48;8.77;;;3.60;86.30;;;;;;5042447;28;20025;-73
2022/03/12 03:27:01;;;;;;;18.77;7.47;;;3.60;86.40;;;;;;5040683;28;20021;-74
2022/03/12 03:29:29;;;;;;;9.55;7.22;;;3.50;86.80;;;;;;5036606;28;20033;-74
2022/03/12 03:31:56;;;;;;;10.32;7.63;;;3.50;86.80;;;;;;5040610;28;20025;-73
2022/03/12 03:34:23;;;;;;;10.57;7.63;;;3.40;86.70;;;;;;5042064;28;20048;-74
2022/03/12 03:36:50;;;;;;;13.25;8.70;;;3.40;87.10;;;;;;5041707;28;20061;-72
2022/03/12 03:39:16;;;;;;;9.30;8.43;;;3.40;87.40;;;;;;5039095;28;20038;-75
2022/03/12 03:41:43;;;;;;;10.05;8.23;;;3.40;88.00;;;;;;5046690;28;20383;-75
2022/03/12 03:44:09;;;;;;;11.73;7.15;;;3.40;88.30;;;;;;5046541;28;20021;-74
2022/03/12 03:46:35;;;;;;;11.80;8.15;;;3.30;89.50;;;;;;5051392;28;20063;-73
2022/03/12 03:49:02;;;;;;;9.68;7.07;;;3.30;89.30;;;;;;5041562;28;20041;-73
2022/03/12 03:51:29;;;;;;;12.25;8.68;;;3.30;90.00;;;;;;5047429;28;20090;-74
2022/03/12 03:53:55;;;;;;;12.20;8.02;;;3.10;90.40;;;;;;5047727;28;20031;-73
2022/03/12 03:56:20;;;;;;;10.88;7.47;;;3.10;90.50;;;;;;5043402;28;20107;-73
2022/03/12 03:58:47;;;;;;;9.52;6.90;;;3.00;90.40;;;;;;5042477;28;20040;-73
2022/03/12 04:01:17;;;;;;;9.27;7.88;;;3.00;90.50;;;;;;5049626;28;20059;-74
2022/03/12 04:03:48;;;;;;;8.77;7.85;;;3.00;90.40;;;;;;5044348;28;20083;-76
2022/03/12 04:06:19;;;;;;;12.18;8.95;;;3.00;90.70;;;;;;5044721;28;20509;-75
2022/03/12 04:08:46;;;;;;;12.10;9.02;;;3.00;90.60;;;;;;5047144;28;20048;-73
2022/03/12 04:11:17;;;;;;;12.20;8.00;;;3.00;90.90;;;;;;5052419;28;20029;-74
2022/03/12 04:13:43;;;;;;;12.85;8.63;;;2.90;91.00;;;;;;5050350;28;20147;-74
2022/03/12 04:16:10;;;;;;;10.07;8.05;;;2.90;91.00;;;;;;5049348;28;20033;-73
2022/03/12 04:18:37;;;;;;;13.18;8.35;;;2.90;90.90;;;;;;5037684;28;20017;-73
2022/03/12 04:21:04;;;;;;;11.70;8.13;;;3.00;91.00;;;;;;5040483;28;20029;-74
2022/03/12 04:23:30;;;;;;;9.55;7.88;;;2.90;91.00;;;;;;5050866;28;20079;-77
2022/03/12 04:25:58;;;;;;;12.23;8.25;;;2.90;91.00;;;;;;5058132;28;20521;-73
2022/03/12 04:28:28;;;;;;;10.50;7.80;;;2.80;91.20;;;;;;5043027;28;20060;-74
2022/03/12 04:30:54;;;;;;;13.20;9.00;;;2.80;91.40;;;;;;5039456;28;20025;-73
2022/03/12 04:33:20;;;;;;;13.02;7.18;;;2.80;91.10;;;;;;5050430;28;20045;-73
2022/03/12 04:35:48;;;;;;;13.38;7.63;;;2.80;91.10;;;;;;5047636;28;20021;-73
2022/03/12 04:38:14;;;;;;;10.65;8.02;;;2.80;90.90;;;;;;5043155;28;20108;-73
2022/03/12 04:40:43;;;;;;;11.10;7.47;;;2.90;90.70;;;;;;5052068;28;20029;-72
2022/03/12 04:43:09;;;;;;;12.10;9.45;;;3.00;90.40;;;;;;5051806;28;20023;-74
2022/03/12 04:45:38;;;;;;;10.82;7.60;;;2.90;90.40;;;;;;5043553;28;20013;-74
2022/03/12 04:48:09;;;;;;;11.40;8.05;;;2.90;90.30;;;;;;5048241;28;20045;-73
2022/03/12 04:50:36;;;;;;;12.52;7.00;;;2.90;90.20;;;;;;5054566;28;20661;-75
2022/03/12 04:53:32;;;;;;;12.27;7.57;;;3.00;89.80;;;;;;5051198;28;20383;-75
2022/03/12 04:55:58;;;;;;;14.75;8.73;;;3.10;89.20;;;;;;5043678;28;20048;-74
2022/03/12 04:58:39;;;;;;;8.90;6.85;;;3.10;89.20;;;;;;5053950;28;20025;-75
2022/03/12 05:01:07;;;;;;;9.88;7.72;;;3.10;88.80;;;;;;5051421;28;20118;-74
2022/03/12 05:03:33;;;;;;;13.80;8.13;;;3.20;88.60;;;;;;5038256;28;20187;-75
2022/03/12 05:06:06;;;;;;;8.60;6.13;;;3.20;88.80;;;;;;5051532;28;20083;-73
2022/03/12 05:08:36;;;;;;;10.13;6.47;;;3.20;88.70;;;;;;5052957;28;20021;-73
2022/03/12 05:11:06;;;;;;;11.13;8.50;;;3.20;88.70;;;;;;5050366;28;20523;-74
2022/03/12 05:13:33;;;;;;;10.50;8.52;;;3.20;89.10;;;;;;5049558;28;20040;-75
2022/03/12 05:16:23;;;;;;;15.38;10.02;;;3.10;89.60;;;;;;5053932;28;20409;-75
2022/03/12 05:19:02;;;;;;;9.95;7.85;;;3.20;89.80;;;;;;5054298;28;20157;-74
2022/03/12 05:22:01;;;;;;;13.95;7.30;;;3.10;90.00;;;;;;5054418;28;20140;-75
2022/03/12 05:24:27;;;;;;;10.65;7.32;;;3.10;90.20;;;;;;5051082;28;20442;-76
2022/03/12 05:26:54;;;;;;;9.70;7.43;;;3.00;90.50;;;;;;5045894;28;20029;-75
2022/03/12 05:29:22;;;;;;;12.60;8.73;;;3.00;90.60;;;;;;5054078;28;20056;-77
2022/03/12 05:31:52;;;;;;;13.30;7.75;;;3.00;90.70;;;;;;5053828;28;20676;-76
2022/03/12 05:34:41;;;;;;;13.40;8.77;;;3.00;90.90;;;;;;5051198;28;20039;-76
2022/03/12 05:37:08;;;;;;;9.45;7.35;;;3.10;90.90;;;;;;5052742;28;20033;-73
2022/03/12 05:39:35;;;;;;;11.52;8.30;;;3.00;91.00;;;;;;5051396;28;20048;-75
2022/03/12 05:42:05;;;;;;;11.68;7.55;;;3.00;91.20;;;;;;5054356;28;20051;-74
2022/03/12 05:44:34;;;;;;;11.52;8.38;;;3.00;91.20;;;;;;5055058;28;20028;-75
2022/03/12 05:47:03;;;;;;;10.98;8.57;;;3.00;91.30;;;;;;5045527;28;20009;-73
2022/03/12 05:49:30;;;;;;;15.77;9.27;;;3.10;91.20;;;;;;5038837;28;20033;-73
2022/03/12 05:51:56;;;;;;;15.48;8.82;;;3.10;91.20;;;;;;5044057;28;20510;-73
2022/03/12 05:54:27;;;;;;;8.70;6.70;;;3.10;91.40;;;;;;5052239;28;20060;-75
2022/03/12 05:56:52;;;;;;;8.07;6.55;;;3.10;91.10;;;;;;5049802;28;20051;-74
2022/03/12 05:59:18;;;;;;;7.78;6.88;;;3.10;91.40;;;;;;5044576;28;20482;-72
2022/03/12 06:01:50;;;;;;;9.55;7.35;;;3.20;91.30;;;;;;5039326;28;20162;-73
2022/03/12 06:04:19;;;;;;;9.48;7.40;;;3.20;91.30;;;;;;5047103;28;20043;-77
2022/03/12 06:06:46;;;;;;;12.07;7.57;;;3.30;91.30;;;;;;5044206;28;20017;-73
2022/03/12 06:09:12;;;;;;;13.32;8.43;;;3.30;91.20;;;;;;5044551;28;20029;-74
2022/03/12 06:11:38;;;;;;;8.43;7.07;;;3.40;91.00;;;;;;5044728;28;20017;-75
2022/03/12 06:14:04;;;;;;;10.95;8.30;;;3.40;91.20;;;;;;5045923;28;20025;-75
2022/03/12 06:16:31;;;;;;;10.70;8.50;;;3.40;91.20;;;;;;5049198;28;20055;-75
2022/03/12 06:18:57;;;;;;;11.05;7.57;;;3.50;91.30;;;;;;5060699;28;20557;-77
2022/03/12 06:21:23;;;;;;;15.48;8.55;;;3.50;91.20;;;;;;5047236;28;20056;-73
2022/03/12 06:23:49;;;;;;;16.65;8.77;;;3.60;91.30;;;;;;5046523;28;20105;-73
2022/03/12 06:26:17;;;;;;;12.05;8.77;;;3.50;91.20;;;;;;5042845;28;20021;-73
2022/03/12 06:28:44;;;;;;;9.07;7.45;;;3.60;91.10;;;;;;5044322;28;20361;-73
2022/03/12 06:31:12;;;;;;;12.48;8.45;;;3.60;91.10;;;;;;5040485;28;20105;-73
2022/03/12 06:33:40;;;;;;;9.63;7.43;;;3.70;90.90;;;;;;5044614;28;20017;-73
2022/03/12 06:36:08;;;;;;;9.13;7.78;;;3.70;90.70;;;;;;5039606;28;20360;-72
2022/03/12 06:38:35;;;;;;;10.48;7.93;;;3.80;90.50;;;;;;5043752;28;20216;-76
2022/03/12 06:41:01;;;;;;;13.32;8.68;;;3.80;90.30;;;;;;5025696;28;20052;-73
2022/03/12 06:43:30;;;;;;;9.63;7.57;;;3.90;90.70;;;;;;5043001;28;20447;-73
2022/03/12 06:46:02;;;;;;;11.90;9.15;;;3.90;90.90;;;;;;5045646;28;20521;-74
2022/03/12 06:48:29;;;;;;;8.55;6.45;;;4.00;90.70;;;;;;5042076;28;20028;-74
2022/03/12 06:50:55;;;;;;;11.75;7.70;;;4.00;90.30;;;;;;5048724;28;20045;-74
2022/03/12 06:53:21;;;;;;;8.80;6.57;;;4.00;90.30;;;;;;5048287;28;20064;-74
2022/03/12 06:55:47;;;;;;;11.25;8.32;;;4.10;90.30;;;;;;5047648;28;21946;-73
2022/03/12 06:58:13;;;;;;;12.60;8.52;;;4.20;90.00;;;;;;5048919;28;20029;-73
2022/03/12 07:00:40;;;;;;;10.15;8.02;;;4.20;89.60;;;;;;5044500;28;20124;-73
2022/03/12 07:03:06;;;;;;;26.30;6.32;;;4.30;89.80;;;;;;5057707;28;20051;-74
2022/03/12 07:05:31;;;;;;;11.90;7.65;;;4.40;89.00;;;;;;5054561;28;20017;-73
2022/03/12 07:07:57;;;;;;;8.98;6.85;;;4.40;88.80;;;;;;5052064;28;20028;-74
2022/03/12 07:10:24;;;;;;;7.07;5.63;;;4.40;88.90;;;;;;5051167;28;20025;-75
2022/03/12 07:12:50;;;;;;;8.73;7.53;;;4.40;89.20;;;;;;5054198;28;20441;-74
2022/03/12 07:15:18;;;;;;;10.82;7.10;;;4.40;88.40;;;;;;5059136;28;20028;-75
2022/03/12 07:17:44;;;;;;;12.50;6.75;;;4.40;88.90;;;;;;5061800;28;20025;-73
2022/03/12 07:20:11;;;;;;;10.25;8.40;;;4.50;88.30;;;;;;5052630;28;20032;-75
2022/03/12 07:22:38;;;;;;;10.93;8.00;;;4.60;88.70;;;;;;5060422;28;20183;-74
2022/03/12 07:25:07;;;;;;;11.77;7.72;;;4.60;89.10;;;;;;5054895;28;20018;-73
2022/03/12 07:27:33;;;;;;;15.20;8.93;;;4.70;88.80;;;;;;5043661;28;20095;-74
2022/03/12 07:30:00;;;;;;;11.30;7.70;;;4.80;88.60;;;;;;5046658;28;20100;-75
2022/03/12 07:32:28;;;;;;;11.52;6.85;;;4.80;87.80;;;;;;5040171;28;20032;-79
2022/03/12 07:34:54;;;;;;;11.75;7.85;;;4.90;87.50;;;;;;5048299;28;20029;-75
2022/03/12 07:37:21;;;;;;;9.68;8.23;;;5.00;87.50;;;;;;5037100;28;20029;-76
2022/03/12 07:39:47;;;;;;;9.13;7.28;;;5.10;87.20;;;;;;5036746;28;20510;-74
2022/03/12 07:42:13;;;;;;;10.05;7.35;;;5.00;86.70;;;;;;5033038;28;20025;-76
2022/03/12 07:44:39;;;;;;;7.53;5.85;;;5.10;86.30;;;;;;5034352;28;20419;-73
2022/03/12 07:47:07;;;;;;;12.32;8.07;;;5.10;86.10;;;;;;5043868;28;20104;-74
2022/03/12 07:49:34;;;;;;;9.50;6.22;;;5.10;86.20;;;;;;5042744;28;20021;-74
2022/03/12 07:52:01;;;;;;;10.65;7.75;;;5.20;85.80;;;;;;5048809;28;20036;-72
2022/03/12 07:54:27;;;;;;;12.45;8.30;;;5.10;86.20;;;;;;5048303;28;20032;-67
2022/03/12 07:56:52;;;;;;;15.18;6.90;;;5.20;86.30;;;;;;5058439;28;20033;-67
2022/03/12 07:59:18;;;;;;;11.15;7.95;;;5.30;86.50;;;;;;5060558;28;20025;-69
2022/03/12 08:01:44;;;;;;;9.77;7.60;;;5.40;86.60;;;;;;5055443;28;20064;-67
2022/03/12 08:04:11;;;;;;;9.65;7.75;;;5.40;84.80;;;;;;5072236;28;20170;-68
2022/03/12 08:06:36;;;;;;;10.50;8.27;;;5.50;85.40;;;;;;5062360;28;20027;-68
2022/03/12 08:09:03;;;;;;;15.52;7.07;;;5.60;84.00;;;;;;5063336;28;20119;-69
2022/03/12 08:11:29;;;;;;;9.65;6.53;;;5.60;82.70;;;;;;5060335;28;20033;-68
2022/03/12 08:14:02;;;;;;;14.93;7.00;;;5.60;83.00;;;;;;5072430;28;20544;-69
2022/03/12 08:16:33;;;;;;;10.20;8.10;;;5.70;83.40;;;;;;5069440;28;20029;-67
2022/03/12 08:19:01;;;;;;;9.18;6.82;;;5.80;83.20;;;;;;5053924;28;20028;-68
2022/03/12 08:21:27;;;;;;;11.50;5.65;;;5.90;83.00;;;;;;5059230;28;20016;-68
2022/03/12 08:23:53;;;;;;;10.52;7.63;;;5.90;82.40;;;;;;5069135;28;20028;-67
2022/03/12 08:26:19;;;;;;;13.43;6.85;;;5.90;82.30;;;;;;5072660;28;20021;-67
2022/03/12 08:28:45;;;;;;;11.13;7.72;;;6.00;82.50;;;;;;5073142;28;20033;-70
2022/03/12 08:31:12;;;;;;;12.35;9.75;;;6.00;82.90;;;;;;5059878;28;20059;-68
2022/03/12 08:33:38;;;;;;;7.60;6.25;;;6.20;83.20;;;;;;5057848;28;20025;-69
2022/03/12 08:36:05;;;;;;;9.88;7.18;;;6.30;82.10;;;;;;5059410;28;20025;-68
2022/03/12 08:38:32;;;;;;;11.07;7.25;;;6.20;81.10;;;;;;5053532;28;20438;-68
2022/03/12 08:40:58;;;;;;;7.90;6.53;;;6.30;82.20;;;;;;5040403;28;20052;-68
2022/03/12 08:43:24;;;;;;;9.27;6.85;;;6.40;82.20;;;;;;5052240;28;20153;-68
2022/03/12 08:45:50;;;;;;;9.68;6.03;;;6.50;81.10;;;;;;5064659;28;20025;-67
2022/03/12 08:48:17;;;;;;;10.15;6.90;;;6.50;81.20;;;;;;5054160;28;20740;-68
2022/03/12 08:50:47;;;;;;;10.70;8.23;;;6.50;81.00;;;;;;5062162;28;20024;-68
2022/03/12 08:53:13;;;;;;;10.40;6.88;;;6.70;80.60;;;;;;5072224;28;20883;-68
2022/03/12 08:55:40;;;;;;;8.90;6.82;;;6.70;80.00;;;;;;5060983;28;20025;-68
2022/03/12 08:58:06;;;;;;;8.45;7.07;;;6.80;79.80;;;;;;5054478;28;20038;-70
2022/03/12 09:00:32;;;;;;;10.10;7.93;;;6.90;79.70;;;;;;5068854;28;20080;-68
2022/03/12 09:02:58;;;;;;;10.75;6.90;;;7.00;79.50;;;;;;5071920;28;20030;-69
2022/03/12 09:05:24;;;;;;;8.60;6.70;;;6.90;79.20;;;;;;5056263;28;20025;-68
2022/03/12 09:07:51;;;;;;;9.63;7.40;;;7.00;78.90;;;;;;5041659;28;20076;-68
2022/03/12 09:10:20;;;;;;;43.05;11.52;;;7.00;78.60;;;;;;5059371;28;20098;-69
2022/03/12 09:12:47;;;;;;;13.55;7.63;;;7.00;79.70;;;;;;5054731;28;20094;-68
2022/03/12 09:15:13;;;;;;;11.02;8.27;;;7.20;80.20;;;;;;5055586;28;20056;-68
2022/03/12 09:17:40;;;;;;;8.85;7.10;;;7.30;79.50;;;;;;5063661;28;20024;-70
2022/03/12 09:20:08;;;;;;;9.52;7.47;;;7.30;78.90;;;;;;5051771;28;20433;-69
2022/03/12 09:22:34;;;;;;;8.85;7.00;;;7.20;76.70;;;;;;5052147;28;20383;-69
2022/03/12 09:25:02;;;;;;;7.85;7.07;;;7.10;76.50;;;;;;5037482;28;20124;-69
2022/03/12 09:27:28;;;;;;;14.10;7.70;;;7.20;76.80;;;;;;5050100;28;20020;-69
2022/03/12 09:29:54;;;;;;;10.95;8.20;;;7.20;75.60;;;;;;5057147;28;20020;-69
2022/03/12 09:32:20;;;;;;;12.02;8.88;;;7.20;77.60;;;;;;5057096;28;20036;-70
2022/03/12 09:34:46;;;;;;;11.63;7.30;;;7.40;78.70;;;;;;5059328;28;20475;-67
2022/03/12 09:37:12;;;;;;;16.70;8.15;;;7.60;77.60;;;;;;5057986;28;20032;-70
2022/03/12 09:39:38;;;;;;;7.97;6.68;;;7.50;75.20;;;;;;5065339;28;20083;-68
2022/03/12 09:42:04;;;;;;;9.95;7.00;;;7.50;76.10;;;;;;5065504;28;20544;-69
2022/03/12 09:44:30;;;;;;;9.30;6.60;;;7.60;75.50;;;;;;5052424;28;20021;-68
2022/03/12 09:46:56;;;;;;;10.60;6.70;;;7.60;75.60;;;;;;5057005;28;20100;-68
2022/03/12 09:49:22;;;;;;;12.85;6.50;;;7.60;74.40;;;;;;5053408;28;20470;-68
2022/03/12 09:51:49;;;;;;;13.57;9.70;;;7.50;74.60;;;;;;5067108;28;20024;-68
2022/03/12 09:54:16;;;;;;;9.07;6.95;;;7.70;77.40;;;;;;5066691;28;20053;-66
2022/03/12 09:56:43;;;;;;;10.35;8.35;;;7.90;75.40;;;;;;5050750;28;20116;-67
2022/03/12 09:59:08;;;;;;;8.45;6.25;;;8.10;74.90;;;;;;5051968;28;20021;-68
2022/03/12 10:01:34;;;;;;;10.10;7.20;;;8.10;73.90;;;;;;5052662;28;20063;-68
2022/03/12 10:04:00;;;;;;;7.30;6.60;;;8.20;71.40;;;;;;5067234;28;20025;-69
2022/03/12 10:06:26;;;;;;;9.68;7.18;;;8.10;70.30;;;;;;5067368;28;20017;-67
2022/03/12 10:08:55;;;;;;;6.22;5.38;;;8.10;73.10;;;;;;5051899;28;20047;-69
2022/03/12 10:11:21;;;;;;;13.32;7.68;;;8.20;70.90;;;;;;5051516;28;20020;-68
2022/03/12 10:13:47;;;;;;;14.23;9.88;;;8.20;72.00;;;;;;5051778;28;20017;-68
2022/03/12 10:16:14;;;;;;;17.55;12.75;;;8.40;72.00;;;;;;5051556;28;20071;-69
2022/03/12 10:18:41;;;;;;;11.23;8.05;;;8.50;72.20;;;;;;5050819;28;20025;-68
2022/03/12 10:21:07;;;;;;;8.30;7.13;;;8.60;70.60;;;;;;5051009;28;20031;-69
2022/03/12 10:23:34;;;;;;;9.52;7.15;;;8.70;70.60;;;;;;5050599;28;20028;-68
2022/03/12 10:26:00;;;;;;;10.38;6.10;;;8.80;70.20;;;;;;5049969;28;20021;-68
2022/03/12 10:28:29;;;;;;;7.72;6.05;;;8.90;68.30;;;;;;5051552;28;20090;-67
2022/03/12 10:30:55;;;;;;;5.70;4.90;;;8.70;68.30;;;;;;5050690;28;20024;-69
2022/03/12 10:33:23;;;;;;;9.38;6.97;;;8.60;68.40;;;;;;5050408;28;20028;-68
2022/03/12 10:35:50;;;;;;;8.18;6.38;;;8.80;70.50;;;;;;5050753;28;20032;-70
2022/03/12 10:38:17;;;;;;;8.55;6.18;;;9.10;70.50;;;;;;5050391;28;20505;-70
2022/03/12 10:40:44;;;;;;;7.43;5.45;;;9.10;68.00;;;;;;5050397;28;20110;-69
2022/03/12 10:43:14;;;;;;;6.55;5.95;;;9.10;67.90;;;;;;5050852;28;20031;-69
2022/03/12 10:45:45;;;;;;;6.95;5.28;;;9.20;68.80;;;;;;5065911;28;20029;-70
2022/03/12 10:48:12;;;;;;;8.77;5.50;;;9.30;67.60;;;;;;5042629;28;20475;-70
2022/03/12 10:50:44;;;;;;;11.38;7.90;;;9.20;68.10;;;;;;5040650;28;20090;-68
2022/03/12 10:53:12;;;;;;;12.38;6.30;;;9.40;68.20;;;;;;5039460;28;20449;-69
2022/03/12 10:55:41;;;;;;;8.77;6.10;;;9.50;66.40;;;;;;5040478;28;20389;-71
2022/03/12 10:58:15;;;;;;;6.35;5.65;;;9.50;65.70;;;;;;5041988;28;20025;-67
2022/03/12 11:00:44;;;;;;;7.53;6.53;;;9.50;66.30;;;;;;5047487;28;20029;-70
2022/03/12 11:03:14;;;;;;;6.93;5.55;;;9.50;67.00;;;;;;5043346;28;20033;-67
2022/03/12 11:05:42;;;;;;;6.75;4.97;;;9.80;65.30;;;;;;5031778;28;20429;-68
2022/03/12 11:08:35;;;;;;;5.90;5.30;;;9.90;65.20;;;;;;5036618;28;20049;-69
2022/03/12 11:11:13;;;;;;;6.47;5.35;;;10.10;64.90;;;;;;5037188;28;20033;-68
2022/03/12 11:13:48;;;;;;;13.90;4.70;;;10.10;63.40;;;;;;5041863;28;20061;-68
2022/03/12 11:16:23;;;;;;;7.10;5.95;;;9.90;62.00;;;;;;5036323;28;20026;-69
2022/03/12 11:18:51;;;;;;;7.05;6.35;;;9.80;62.50;;;;;;5046359;28;20044;-68
2022/03/12 11:21:33;;;;;;;15.98;7.93;;;9.70;79.00;;;;;;5041475;28;20035;-67
2022/03/12 11:24:00;;;;;;;9.48;6.18;;;9.60;81.30;;;;;;5036969;28;20048;-68
2022/03/12 11:26:28;;;;;;;6.93;5.80;;;9.30;83.20;;;;;;5036255;28;20392;-67
2022/03/12 11:28:57;;;;;;;7.97;5.78;;;9.00;89.80;;;;;;5038203;28;20029;-68
2022/03/12 11:31:42;;;;;;;9.52;5.80;;;8.60;90.30;;;;;;5038225;28;20024;-68
2022/03/12 11:34:19;;;;;;;9.52;6.13;;;8.50;91.90;;;;;;5047331;28;20040;-69
2022/03/12 11:36:45;;;;;;;7.50;5.95;;;8.50;89.70;;;;;;5048461;28;20025;-68
2022/03/12 11:39:20;;;;;;;10.30;7.15;;;8.60;90.80;;;;;;5042195;28;20125;-68
2022/03/12 11:42:03;;;;;;;7.30;5.32;;;8.70;91.80;;;;;;5041599;28;20031;-70
2022/03/12 11:44:30;;;;;;;10.73;6.25;;;8.60;91.50;;;;;;5038563;28;20067;-68
2022/03/12 11:46:56;;;;;;;8.95;6.15;;;8.60;92.80;;;;;;5044399;28;20348;-68
2022/03/12 11:49:23;;;;;;;11.05;6.80;;;8.60;94.30;;;;;;5037898;28;20022;-68
2022/03/12 11:51:51;;;;;;;11.70;6.63;;;8.50;93.40;;;;;;5043290;28;20041;-69
2022/03/12 11:54:16;;;;;;;11.02;6.32;;;8.40;93.90;;;;;;5040923;28;20030;-68
2022/03/12 11:56:42;;;;;;;9.95;6.88;;;8.40;93.90;;;;;;5039198;28;20025;-68
2022/03/12 11:59:08;;;;;;;9.13;7.32;;;8.50;94.40;;;;;;5038068;28;20049;-68
2022/03/12 12:01:37;;;;;;;7.78;5.95;;;8.40;95.30;;;;;;5049135;28;20028;-68
2022/03/12 12:04:03;;;;;;;10.65;6.38;;;8.40;95.20;;;;;;5051735;28;20017;-68
2022/03/12 12:06:28;;;;;;;7.35;6.35;;;8.50;94.90;;;;;;5049941;28;20507;-69
2022/03/12 12:08:55;;;;;;;17.52;6.57;;;8.40;95.00;;;;;;5052591;28;20086;-70
2022/03/12 12:11:22;;;;;;;9.90;7.20;;;8.40;95.30;;;;;;5049634;28;20491;-68
2022/03/12 12:13:48;;;;;;;13.35;7.10;;;8.50;95.60;;;;;;5054068;28;20029;-68
2022/03/12 12:16:16;;;;;;;7.57;6.72;;;8.40;93.90;;;;;;5052463;28;20028;-70
2022/03/12 12:18:41;;;;;;;10.88;6.03;;;8.40;94.30;;;;;;5049191;28;20032;-68
2022/03/12 12:21:16;;;;;;;9.07;8.27;;;8.40;95.80;;;;;;5053825;28;20036;-68
2022/03/12 12:23:42;;;;;;;12.18;6.90;;;8.40;95.50;;;;;;5053615;28;20024;-68
2022/03/12 12:26:09;;;;;;;8.15;6.78;;;8.40;96.40;;;;;;5042847;28;20398;-68
2022/03/12 12:28:52;;;;;;;7.82;6.72;;;8.40;93.60;;;;;;5050863;28;20430;-69
2022/03/12 12:31:26;;;;;;;8.13;6.78;;;8.50;95.50;;;;;;5052334;28;20032;-67
2022/03/12 12:33:56;;;;;;;9.90;6.32;;;8.50;95.50;;;;;;5054631;28;20042;-68
2022/03/12 12:36:22;;;;;;;7.72;6.90;;;8.50;95.30;;;;;;5055750;28;20025;-69
2022/03/12 12:39:06;;;;;;;7.63;6.90;;;8.50;96.10;;;;;;5044555;28;20035;-68
2022/03/12 12:41:56;;;;;;;9.82;6.63;;;8.50;96.30;;;;;;5043922;28;20029;-68
2022/03/12 12:44:43;;;;;;;16.33;7.13;;;8.60;97.40;;;;;;5049180;28;20055;-69
2022/03/12 12:47:18;;;;;;;10.27;7.22;;;8.50;94.90;;;;;;5040926;28;20034;-69
2022/03/12 12:49:57;;;;;;;8.60;6.82;;;8.40;95.90;;;;;;5044200;28;20048;-68
2022/03/12 12:52:29;;;;;;;13.73;7.93;;;8.40;96.80;;;;;;5032511;28;20041;-68
2022/03/12 12:54:58;;;;;;;13.18;6.95;;;8.40;94.80;;;;;;5052317;28;20021;-68
2022/03/12 12:57:48;;;;;;;8.85;7.20;;;8.40;96.70;;;;;;5052178;28;20024;-68